Time;durP1;ratioP1;P1;durP2;ratioP2;P2;SDS_P1;SDS_P2;PMS_P1;PMS_P2;Temp;Humidity;BMP_temperature;BMP_pressure;BME280_temperature;BME280_humidity;BME280_pressure;Samples;Min_cycle;Max_cycle;Signal;HPM_P1;HPM_P2
2022/06/01 00:01:46;;;;;;;8.00;3.70;;;15.90;58.70;;;;;;5028967;28;20221;-90
2022/06/01 00:04:17;;;;;;;10.13;3.67;;;15.90;58.60;;;;;;5031341;28;20242;-90
2022/06/01 00:06:45;;;;;;;8.23;3.37;;;15.80;58.80;;;;;;5031754;28;20255;-90
2022/06/01 00:09:14;;;;;;;12.20;3.60;;;15.80;58.60;;;;;;5027852;28;20201;-90
2022/06/01 00:11:46;;;;;;;10.37;4.00;;;15.80;58.70;;;;;;5015908;28;20281;-90
2022/06/01 00:14:14;;;;;;;6.77;2.93;;;15.80;58.90;;;;;;5028412;28;20787;-90
2022/06/01 00:16:42;;;;;;;6.57;3.20;;;15.80;58.70;;;;;;5032583;28;20216;-90
2022/06/01 00:19:09;;;;;;;10.90;3.93;;;15.80;58.80;;;;;;5031316;28;20723;-90
2022/06/01 00:22:11;;;;;;;6.90;3.77;;;15.70;58.80;;;;;;5032525;28;20665;-90
2022/06/01 00:24:24;;;;;;;22.73;7.27;;;15.70;58.80;;;;;;5027423;28;20200;-88
2022/06/01 00:26:53;;;;;;;6.73;2.90;;;15.60;58.70;;;;;;5030641;28;20780;-90
2022/06/01 00:29:21;;;;;;;8.33;3.40;;;15.60;59.00;;;;;;5032104;28;20304;-89
2022/06/01 00:31:49;;;;;;;15.20;5.03;;;15.60;59.60;;;;;;5028758;28;20208;-90
2022/06/01 00:34:18;;;;;;;12.53;5.27;;;15.60;59.00;;;;;;5030347;28;20601;-89
2022/06/01 00:36:48;;;;;;;10.63;3.73;;;15.50;59.10;;;;;;5020918;28;20563;-90
2022/06/01 00:39:15;;;;;;;12.37;4.83;;;15.50;59.10;;;;;;5013999;28;20233;-90
2022/06/01 00:41:43;;;;;;;11.57;4.70;;;15.50;59.30;;;;;;5028317;28;20250;-90
2022/06/01 00:44:11;;;;;;;11.27;4.00;;;15.40;59.30;;;;;;5032553;28;20212;-90
2022/06/01 00:46:43;;;;;;;14.17;5.47;;;15.40;59.70;;;;;;5028014;28;20212;-90
2022/06/01 00:49:16;;;;;;;8.70;4.13;;;15.40;60.00;;;;;;5036461;28;20215;-89
2022/06/01 00:51:44;;;;;;;9.17;4.37;;;15.40;60.20;;;;;;5043215;28;20216;-90
2022/06/01 00:54:11;;;;;;;8.80;3.63;;;15.30;60.10;;;;;;5039400;28;20295;-90
2022/06/01 00:56:45;;;;;;;7.17;3.70;;;15.30;60.10;;;;;;5041435;28;20255;-90
2022/06/01 00:59:17;;;;;;;8.47;3.47;;;15.20;60.40;;;;;;5045838;28;20607;-89
2022/06/01 01:01:46;;;;;;;8.33;3.90;;;15.20;60.50;;;;;;5028853;28;20212;-90
2022/06/01 01:04:14;;;;;;;18.23;6.07;;;15.20;60.20;;;;;;5031558;28;20596;-90
2022/06/01 01:06:44;;;;;;;13.37;5.13;;;15.20;60.40;;;;;;5034667;28;20257;-90
2022/06/01 01:09:14;;;;;;;9.40;4.17;;;15.20;60.50;;;;;;5043072;28;20212;-91
2022/06/01 01:11:49;;;;;;;17.10;5.67;;;15.10;60.50;;;;;;5029554;28;20234;-90
2022/06/01 01:14:26;;;;;;;6.83;3.60;;;15.10;60.90;;;;;;5040204;28;20271;-89
2022/06/01 01:16:54;;;;;;;9.13;3.93;;;15.10;61.10;;;;;;5039520;28;20205;-91
2022/06/01 01:19:32;;;;;;;9.30;3.87;;;15.00;60.30;;;;;;5038635;28;20212;-91
2022/06/01 01:22:13;;;;;;;9.90;4.87;;;15.00;61.10;;;;;;5037969;28;20577;-91
2022/06/01 01:24:51;;;;;;;10.20;4.70;;;14.90;61.30;;;;;;5035168;28;20652;-90
2022/06/01 01:27:20;;;;;;;5.67;3.83;;;14.80;61.20;;;;;;5037157;28;20212;-89
2022/06/01 01:29:47;;;;;;;9.83;4.43;;;14.80;61.00;;;;;;5034054;28;20289;-92
2022/06/01 01:32:16;;;;;;;7.67;3.90;;;14.80;61.30;;;;;;5034110;28;20235;-90
2022/06/01 01:34:44;;;;;;;12.37;4.90;;;14.80;62.00;;;;;;5031442;28;20284;-90
2022/06/01 01:37:17;;;;;;;15.20;5.83;;;14.70;62.10;;;;;;5036994;28;20197;-89
2022/06/01 01:39:50;;;;;;;9.30;4.60;;;14.70;62.50;;;;;;5036194;28;20197;-90
2022/06/01 01:42:22;;;;;;;10.40;5.00;;;14.70;62.80;;;;;;5035333;28;20239;-89
2022/06/01 01:45:00;;;;;;;9.97;4.50;;;14.70;62.80;;;;;;5035778;28;20212;-90
2022/06/01 01:47:28;;;;;;;12.07;5.17;;;14.70;63.00;;;;;;5032971;28;20622;-90
2022/06/01 01:49:55;;;;;;;11.03;4.80;;;14.70;62.80;;;;;;5034857;28;20225;-89
2022/06/01 01:52:22;;;;;;;12.87;4.90;;;14.70;63.00;;;;;;5032007;28;20686;-90
2022/06/01 01:54:58;;;;;;;9.17;4.73;;;14.70;62.90;;;;;;5034661;28;20290;-90
2022/06/01 01:57:34;;;;;;;12.73;5.50;;;14.70;63.80;;;;;;5035245;28;20531;-89
2022/06/01 02:00:14;;;;;;;9.13;4.07;;;14.70;63.70;;;;;;5034779;28;20216;-89
2022/06/01 02:02:50;;;;;;;10.57;4.70;;;14.60;63.70;;;;;;5034490;28;20396;-91
2022/06/01 02:08:14;;;;;;;10.83;4.67;;;14.70;63.60;;;;;;5035229;28;20270;-89
2022/06/01 02:13:31;;;;;;;11.33;4.97;;;14.70;63.30;;;;;;5043131;28;20235;-90
2022/06/01 02:16:00;;;;;;;11.83;5.00;;;14.70;63.70;;;;;;5036171;28;20213;-89
2022/06/01 02:18:32;;;;;;;6.70;3.83;;;14.70;63.80;;;;;;5037664;28;20216;-90
2022/06/01 02:21:02;;;;;;;10.33;4.50;;;14.70;64.30;;;;;;5035687;28;20212;-88
2022/06/01 02:23:35;;;;;;;9.70;4.40;;;14.70;64.10;;;;;;5038057;28;20208;-90
2022/06/01 02:26:03;;;;;;;9.87;5.13;;;14.60;64.20;;;;;;5043887;28;20227;-90
2022/06/01 02:28:35;;;;;;;13.20;4.83;;;14.60;63.80;;;;;;5036447;28;20278;-92
2022/06/01 02:31:03;;;;;;;9.60;5.30;;;14.60;64.00;;;;;;5042000;28;20200;-88
2022/06/01 02:33:35;;;;;;;14.27;6.10;;;14.60;64.20;;;;;;5038191;28;20238;-88
2022/06/01 02:36:04;;;;;;;12.10;5.50;;;14.60;64.60;;;;;;5037932;28;20276;-89
2022/06/01 02:38:36;;;;;;;13.93;5.63;;;14.60;64.50;;;;;;5034364;28;20283;-89
2022/06/01 02:41:06;;;;;;;14.37;6.00;;;14.60;64.40;;;;;;5035746;28;20211;-89
2022/06/01 02:46:32;;;;;;;14.40;5.87;;;14.50;64.30;;;;;;5111485;27;20551;-90
2022/06/01 02:49:05;;;;;;;11.60;5.30;;;14.40;64.40;;;;;;5092995;28;20208;-88
2022/06/01 02:51:32;;;;;;;12.73;5.97;;;14.40;64.90;;;;;;5096958;28;20623;-89
2022/06/01 02:54:00;;;;;;;13.77;5.33;;;14.40;64.80;;;;;;5077215;28;20226;-89
2022/06/01 02:56:27;;;;;;;11.53;5.73;;;14.40;65.70;;;;;;5072022;28;20231;-88
2022/06/01 02:58:56;;;;;;;12.57;5.37;;;14.30;64.90;;;;;;5093107;28;20217;-89
2022/06/01 03:01:24;;;;;;;9.73;5.33;;;14.30;65.10;;;;;;5102477;28;20202;-90
2022/06/01 03:03:55;;;;;;;9.33;5.23;;;14.30;65.40;;;;;;5098672;28;20194;-94
2022/06/01 03:06:23;;;;;;;8.93;5.13;;;14.20;65.00;;;;;;5085151;28;20263;-93
2022/06/01 03:08:51;;;;;;;10.03;5.17;;;14.20;65.00;;;;;;5091259;28;20259;-89
2022/06/01 03:11:25;;;;;;;14.60;6.80;;;14.20;65.10;;;;;;5104875;28;20295;-91
2022/06/01 03:13:55;;;;;;;12.07;5.60;;;14.20;65.70;;;;;;5105829;28;20216;-92
2022/06/01 03:16:23;;;;;;;13.23;5.63;;;14.20;65.40;;;;;;5093450;28;20201;-96
2022/06/01 03:18:50;;;;;;;11.37;5.37;;;14.20;65.00;;;;;;5094835;28;20207;-91
2022/06/01 03:21:25;;;;;;;11.20;5.67;;;14.20;65.00;;;;;;5102587;28;20204;-94
2022/06/01 03:23:52;;;;;;;12.47;5.57;;;14.10;66.60;;;;;;5103018;28;20247;-90
2022/06/01 03:26:19;;;;;;;9.90;5.30;;;14.10;65.40;;;;;;5074871;28;20280;-89
2022/06/01 03:28:46;;;;;;;10.87;5.33;;;14.00;65.50;;;;;;5087363;28;20262;-90
2022/06/01 03:31:13;;;;;;;14.47;6.00;;;14.00;65.70;;;;;;5108734;28;20719;-88
2022/06/01 03:33:40;;;;;;;9.73;5.57;;;14.00;65.60;;;;;;5090768;28;20240;-91
2022/06/01 03:36:07;;;;;;;11.40;5.87;;;14.00;65.80;;;;;;5073670;28;20603;-89
2022/06/01 03:38:37;;;;;;;10.17;5.33;;;13.90;66.00;;;;;;5082835;28;20197;-91
2022/06/01 03:41:04;;;;;;;17.33;7.53;;;13.90;66.00;;;;;;5087699;28;20253;-89
2022/06/01 03:45:55;;;;;;;10.87;5.63;;;13.90;66.20;;;;;;5071594;28;20205;-88
2022/06/01 03:46:17;;;;;;;15.70;5.67;;;13.90;66.20;;;;;;5072246;28;20237;-89
2022/06/01 03:48:46;;;;;;;15.43;6.33;;;13.80;65.80;;;;;;5090835;28;20190;-90
2022/06/01 03:51:13;;;;;;;18.63;7.43;;;13.80;66.30;;;;;;5077765;28;20256;-89
2022/06/01 03:53:42;;;;;;;11.40;5.90;;;13.80;66.20;;;;;;5088884;28;20205;-90
2022/06/01 03:56:16;;;;;;;14.00;5.87;;;13.70;66.40;;;;;;5087505;28;20206;-92
2022/06/01 03:58:43;;;;;;;10.47;5.40;;;13.70;66.70;;;;;;5067626;28;20574;-89
2022/06/01 04:01:16;;;;;;;15.03;6.27;;;13.70;66.40;;;;;;5075370;28;20205;-90
2022/06/01 04:03:44;;;;;;;13.90;6.13;;;13.70;66.90;;;;;;5078726;28;20231;-90
2022/06/01 04:06:14;;;;;;;9.37;5.10;;;13.70;66.80;;;;;;5076144;28;20234;-90
2022/06/01 04:08:46;;;;;;;11.40;5.33;;;13.70;67.10;;;;;;5082063;28;20208;-90
2022/06/01 04:11:13;;;;;;;15.10;6.60;;;13.60;67.20;;;;;;5080722;28;20205;-89
2022/06/01 04:13:40;;;;;;;9.87;5.27;;;13.60;67.00;;;;;;5068446;28;20666;-91
2022/06/01 04:16:07;;;;;;;16.33;6.43;;;13.60;67.30;;;;;;5058273;28;20240;-90
2022/06/01 04:18:35;;;;;;;13.13;6.00;;;13.60;68.50;;;;;;5071899;28;20206;-90
2022/06/01 04:21:02;;;;;;;10.00;5.30;;;13.60;68.00;;;;;;5080509;28;20276;-89
2022/06/01 04:23:29;;;;;;;12.73;5.73;;;13.60;67.90;;;;;;5073466;28;20216;-91
2022/06/01 04:25:58;;;;;;;11.77;6.07;;;13.60;68.40;;;;;;5072691;28;20310;-89
2022/06/01 04:28:26;;;;;;;11.57;6.17;;;13.60;68.90;;;;;;5062050;28;20730;-89
2022/06/01 04:30:53;;;;;;;15.77;6.83;;;13.60;69.00;;;;;;5055085;28;20292;-89
2022/06/01 04:33:21;;;;;;;19.90;7.53;;;13.60;69.10;;;;;;5060087;28;20714;-90
2022/06/01 04:35:50;;;;;;;16.50;7.23;;;13.70;69.20;;;;;;5074660;28;20194;-90
2022/06/01 04:38:18;;;;;;;19.17;8.50;;;13.70;69.30;;;;;;5072587;28;20373;-90
2022/06/01 04:40:47;;;;;;;11.40;5.60;;;13.70;69.20;;;;;;5073385;28;20225;-89
2022/06/01 04:43:20;;;;;;;14.40;6.63;;;13.70;69.40;;;;;;5073897;28;20201;-90
2022/06/01 04:45:50;;;;;;;19.40;7.83;;;13.70;70.00;;;;;;5053536;28;20269;-90
2022/06/01 04:48:18;;;;;;;13.33;6.87;;;13.70;69.90;;;;;;5071058;28;20296;-90
2022/06/01 04:50:46;;;;;;;14.93;6.40;;;13.70;70.20;;;;;;5072590;28;20606;-89
2022/06/01 04:53:15;;;;;;;12.17;6.77;;;13.80;70.20;;;;;;5073821;28;20322;-92
2022/06/01 04:55:44;;;;;;;14.13;6.17;;;13.80;70.30;;;;;;5055409;28;20208;-91
2022/06/01 04:58:12;;;;;;;14.27;6.63;;;13.80;71.00;;;;;;5072875;28;20711;-90
2022/06/01 05:00:44;;;;;;;9.63;5.63;;;13.80;70.70;;;;;;5072449;28;20284;-90
2022/06/01 05:03:14;;;;;;;23.03;8.77;;;13.90;72.00;;;;;;5070207;28;20234;-89
2022/06/01 05:05:41;;;;;;;14.43;6.23;;;13.90;71.00;;;;;;5065066;28;20762;-92
2022/06/01 05:08:10;;;;;;;15.07;6.90;;;13.90;71.00;;;;;;5058442;28;20609;-91
2022/06/01 05:10:37;;;;;;;14.97;6.77;;;14.00;71.10;;;;;;5054647;28;20203;-90
2022/06/01 05:13:04;;;;;;;13.40;6.90;;;14.00;70.90;;;;;;5066262;28;20552;-90
2022/06/01 05:15:31;;;;;;;9.90;5.70;;;14.00;71.20;;;;;;5071748;28;20244;-91
2022/06/01 05:17:59;;;;;;;12.67;6.17;;;14.10;71.40;;;;;;5065934;28;20667;-89
2022/06/01 05:20:28;;;;;;;13.03;6.37;;;14.10;71.50;;;;;;5070162;28;20998;-90
2022/06/01 05:22:55;;;;;;;13.67;6.40;;;14.10;71.70;;;;;;5072729;28;20201;-90
2022/06/01 05:25:22;;;;;;;15.13;6.77;;;14.10;71.60;;;;;;5058399;28;20229;-94
2022/06/01 05:27:50;;;;;;;13.57;6.33;;;14.20;72.00;;;;;;5059580;28;20271;-94
2022/06/01 05:30:17;;;;;;;11.60;6.47;;;14.20;71.80;;;;;;5071890;28;20215;-91
2022/06/01 05:32:46;;;;;;;16.03;6.70;;;14.30;71.80;;;;;;5066331;28;20287;-92
2022/06/01 05:35:16;;;;;;;18.70;7.50;;;14.30;72.70;;;;;;5063952;28;20262;-92
2022/06/01 05:37:45;;;;;;;13.10;6.30;;;14.30;72.90;;;;;;5054305;28;20298;-92
2022/06/01 05:40:13;;;;;;;14.17;6.00;;;14.40;72.70;;;;;;5050526;28;20286;-89
2022/06/01 05:42:40;;;;;;;13.63;6.20;;;14.40;72.60;;;;;;5073486;28;20252;-90
2022/06/01 05:45:17;;;;;;;18.83;7.43;;;14.40;72.70;;;;;;5068285;28;20305;-89
2022/06/01 05:47:44;;;;;;;11.87;6.67;;;14.50;72.80;;;;;;5051270;28;20698;-91
2022/06/01 05:50:11;;;;;;;15.93;7.47;;;14.50;72.60;;;;;;5053436;28;20233;-92
2022/06/01 05:52:39;;;;;;;10.63;6.53;;;14.60;72.70;;;;;;5058261;28;20705;-92
2022/06/01 05:55:09;;;;;;;12.73;6.87;;;14.60;73.40;;;;;;5060477;28;20314;-90
2022/06/01 05:57:36;;;;;;;11.00;6.37;;;14.70;73.90;;;;;;5082334;28;20206;-92
2022/06/01 06:00:10;;;;;;;20.13;8.80;;;14.70;73.30;;;;;;5088820;28;20267;-89
2022/06/01 06:02:38;;;;;;;12.40;6.47;;;14.70;73.90;;;;;;5066998;28;20250;-88
2022/06/01 06:06:11;;;;;;;14.17;6.50;;;14.70;73.40;;;;;;5068306;28;20241;-89
2022/06/01 06:07:55;;;;;;;12.40;6.23;;;14.80;73.60;;;;;;5067799;28;20219;-92
2022/06/01 06:10:22;;;;;;;14.53;7.10;;;14.80;74.10;;;;;;5069620;28;20215;-91
2022/06/01 06:12:50;;;;;;;12.57;6.63;;;14.80;73.90;;;;;;5069969;28;20644;-89
2022/06/01 06:15:17;;;;;;;12.50;6.00;;;14.90;74.20;;;;;;5073713;28;20244;-89
2022/06/01 06:17:44;;;;;;;9.30;6.10;;;14.90;74.10;;;;;;5068247;28;20285;-89
2022/06/01 06:20:12;;;;;;;14.70;7.50;;;15.00;73.80;;;;;;5067992;28;20203;-89
2022/06/01 06:22:41;;;;;;;17.23;8.17;;;15.00;74.40;;;;;;5054260;28;20308;-90
2022/06/01 06:25:09;;;;;;;16.97;7.50;;;15.10;74.40;;;;;;5055730;28;20682;-89
2022/06/01 06:27:37;;;;;;;11.77;6.20;;;15.20;74.80;;;;;;5066442;28;20196;-89
2022/06/01 06:30:04;;;;;;;14.23;6.70;;;15.20;74.30;;;;;;5055235;28;20200;-89
2022/06/01 06:32:32;;;;;;;12.43;6.00;;;15.30;74.40;;;;;;5058514;28;20838;-92
2022/06/01 06:34:59;;;;;;;17.03;7.83;;;15.30;74.10;;;;;;5052125;28;20296;-89
2022/06/01 06:37:26;;;;;;;16.30;7.10;;;15.40;74.20;;;;;;5061527;28;20208;-89
2022/06/01 06:39:53;;;;;;;14.50;7.57;;;15.50;74.50;;;;;;5082568;28;20253;-90
2022/06/01 06:42:21;;;;;;;11.63;6.17;;;15.60;74.60;;;;;;5100029;28;20198;-89
2022/06/01 06:44:48;;;;;;;14.33;6.93;;;15.70;74.80;;;;;;5070178;28;20244;-89
2022/06/01 06:47:17;;;;;;;17.70;7.63;;;15.70;74.40;;;;;;5053124;28;20239;-89
2022/06/01 06:49:44;;;;;;;13.53;6.73;;;15.80;74.40;;;;;;5053612;28;20212;-88
2022/06/01 06:52:12;;;;;;;12.93;6.53;;;15.90;74.20;;;;;;5051018;28;20210;-89
2022/06/01 06:54:40;;;;;;;16.60;6.50;;;16.00;74.20;;;;;;5051339;28;20227;-89
2022/06/01 06:57:07;;;;;;;11.83;6.43;;;16.10;74.30;;;;;;5054455;28;20292;-90
2022/06/01 06:59:38;;;;;;;18.03;8.07;;;16.20;74.20;;;;;;5054490;28;20921;-89
2022/06/01 07:02:06;;;;;;;10.10;5.80;;;16.20;74.00;;;;;;5052918;28;20691;-89
2022/06/01 07:04:36;;;;;;;10.67;5.37;;;16.30;73.80;;;;;;5057312;28;20589;-90
2022/06/01 07:07:04;;;;;;;16.03;7.07;;;16.40;73.10;;;;;;5053140;28;21410;-89
2022/06/01 07:09:31;;;;;;;8.30;4.60;;;16.50;73.20;;;;;;5056666;28;20619;-89
2022/06/01 07:11:58;;;;;;;11.90;5.97;;;16.60;72.50;;;;;;5085139;28;20204;-90
2022/06/01 07:14:24;;;;;;;14.53;5.70;;;16.60;72.10;;;;;;5071249;28;20212;-90
2022/06/01 07:16:53;;;;;;;10.90;5.30;;;16.70;71.70;;;;;;5065239;28;20219;-90
2022/06/01 07:19:21;;;;;;;20.10;7.73;;;16.80;72.60;;;;;;5063288;28;20242;-90
2022/06/01 07:21:47;;;;;;;10.33;5.00;;;16.90;71.00;;;;;;5068166;28;20209;-89
2022/06/01 07:24:14;;;;;;;8.53;4.97;;;16.90;70.90;;;;;;5068281;28;20577;-89
2022/06/01 07:26:44;;;;;;;10.80;5.20;;;17.00;71.00;;;;;;5058162;28;20317;-91
2022/06/01 07:29:14;;;;;;;9.60;4.83;;;17.00;71.00;;;;;;5056194;28;20215;-91
2022/06/01 07:31:42;;;;;;;13.00;5.40;;;17.10;70.70;;;;;;5085162;28;20213;-89
2022/06/01 07:34:11;;;;;;;11.80;4.73;;;17.20;70.20;;;;;;5088097;28;20209;-91
2022/06/01 07:36:39;;;;;;;10.37;4.40;;;17.20;70.90;;;;;;5055738;28;20609;-92
2022/06/01 07:44:38;;;;;;;9.07;4.00;;;17.40;68.60;;;;;;5072433;28;20220;-90
2022/06/01 07:47:12;;;;;;;13.27;4.90;;;17.50;69.10;;;;;;5072584;28;20244;-91
2022/06/01 07:49:41;;;;;;;10.67;5.00;;;17.50;68.80;;;;;;5052983;28;20193;-92
2022/06/01 07:52:12;;;;;;;33.80;8.80;;;17.60;69.30;;;;;;5054281;28;20214;-92
2022/06/01 07:54:40;;;;;;;16.37;5.77;;;17.60;68.80;;;;;;5071561;28;20206;-90
2022/06/01 07:57:08;;;;;;;11.47;4.37;;;17.70;67.90;;;;;;5058818;28;20286;-90
2022/06/01 07:59:35;;;;;;;16.53;5.40;;;17.80;67.40;;;;;;5063819;28;20281;-90
2022/06/01 08:02:06;;;;;;;10.03;3.30;;;17.90;67.50;;;;;;5056117;28;20214;-90
2022/06/01 08:04:36;;;;;;;9.03;3.70;;;18.00;67.40;;;;;;5062748;28;20207;-92
2022/06/01 08:07:09;;;;;;;7.23;3.23;;;18.00;66.40;;;;;;5079999;28;20234;-89
2022/06/01 08:09:42;;;;;;;7.20;3.57;;;18.10;66.20;;;;;;5078917;28;20234;-89
2022/06/01 08:14:55;;;;;;;10.10;3.67;;;18.20;66.10;;;;;;5083327;28;20637;-90
2022/06/01 08:17:22;;;;;;;7.60;3.30;;;18.20;65.60;;;;;;5067627;28;20229;-92
2022/06/01 08:19:50;;;;;;;11.57;3.37;;;18.30;65.50;;;;;;5055711;28;20337;-91
2022/06/01 08:22:18;;;;;;;10.23;3.27;;;18.40;64.70;;;;;;5054539;28;20279;-92
2022/06/01 08:24:46;;;;;;;7.77;3.17;;;18.50;64.10;;;;;;5072569;28;20314;-90
2022/06/01 08:27:13;;;;;;;5.20;2.23;;;18.50;63.60;;;;;;5072343;28;20760;-88
2022/06/01 08:29:40;;;;;;;13.00;5.33;;;18.50;64.10;;;;;;5069329;28;20202;-88
2022/06/01 08:32:08;;;;;;;7.90;2.80;;;18.60;63.50;;;;;;5052165;28;20222;-91
2022/06/01 08:34:36;;;;;;;6.57;2.73;;;18.70;64.20;;;;;;5052857;28;20231;-90
2022/06/01 08:37:04;;;;;;;6.73;2.67;;;18.80;63.60;;;;;;5051180;28;20295;-91
2022/06/01 08:39:33;;;;;;;9.33;3.50;;;18.90;62.90;;;;;;5051847;28;20275;-90
2022/06/01 08:42:01;;;;;;;20.47;5.03;;;19.10;62.80;;;;;;5057006;28;20202;-87
2022/06/01 08:44:31;;;;;;;6.83;2.97;;;19.20;62.60;;;;;;5056570;28;20298;-87
2022/06/01 08:47:06;;;;;;;6.87;3.30;;;19.40;62.10;;;;;;5068114;28;20305;-88
2022/06/01 08:49:43;;;;;;;4.30;2.23;;;19.50;60.80;;;;;;5073244;28;20210;-90
2022/06/01 08:52:10;;;;;;;9.73;4.20;;;19.60;60.70;;;;;;5088936;28;20222;-89
2022/06/01 08:54:41;;;;;;;6.30;3.07;;;19.80;60.70;;;;;;5084062;28;20204;-89
2022/06/01 08:57:20;;;;;;;10.70;4.03;;;19.90;60.50;;;;;;5059457;28;20316;-88
2022/06/01 09:00:07;;;;;;;7.70;2.67;;;19.90;59.10;;;;;;5066146;28;20191;-88
2022/06/01 09:02:46;;;;;;;12.83;4.80;;;20.00;58.50;;;;;;5068038;28;20673;-89
2022/06/01 09:05:18;;;;;;;12.63;3.30;;;20.10;58.40;;;;;;5074365;28;20215;-89
2022/06/01 09:07:52;;;;;;;4.90;2.57;;;20.10;58.20;;;;;;5069962;28;20314;-89
2022/06/01 09:10:50;;;;;;;7.43;3.60;;;20.20;58.20;;;;;;5051825;28;20274;-89
2022/06/01 09:13:35;;;;;;;18.83;6.10;;;20.20;57.70;;;;;;5056332;28;20238;-89
2022/06/01 09:16:06;;;;;;;6.97;3.40;;;20.30;58.30;;;;;;5072620;28;20299;-90
2022/06/01 09:18:40;;;;;;;8.73;3.70;;;20.20;57.90;;;;;;5070680;28;20309;-91
2022/06/01 09:24:06;;;;;;;11.80;3.57;;;20.40;57.70;;;;;;5057937;28;20203;-87
2022/06/01 10:07:34;;;;;;;8.10;3.87;;;17.90;60.80;;;;;;5041970;28;20222;-91
2022/06/01 10:10:19;;;;;;;8.87;3.80;;;18.20;61.60;;;;;;5051905;28;20192;-93
2022/06/01 10:12:52;;;;;;;6.23;3.40;;;18.50;60.40;;;;;;5089140;28;20273;-89
2022/06/01 10:15:29;;;;;;;7.63;3.47;;;18.90;60.40;;;;;;5105480;27;20214;-91
2022/06/01 10:18:02;;;;;;;12.20;4.87;;;19.20;59.80;;;;;;5088123;28;20210;-91
2022/06/01 10:20:36;;;;;;;7.77;3.77;;;19.60;59.70;;;;;;5091971;28;20265;-91
2022/06/01 10:23:10;;;;;;;5.93;3.60;;;19.90;58.80;;;;;;5094589;28;20222;-94
2022/06/01 10:25:44;;;;;;;7.43;3.83;;;20.20;58.90;;;;;;5091890;28;20202;-90
2022/06/01 10:28:20;;;;;;;8.67;4.30;;;20.50;57.30;;;;;;5094032;28;20202;-90
2022/06/01 10:30:51;;;;;;;7.27;3.83;;;20.70;56.60;;;;;;5108038;28;20206;-92
2022/06/01 10:33:25;;;;;;;7.90;3.67;;;20.90;56.40;;;;;;5096405;28;20204;-90
2022/06/01 10:36:00;;;;;;;9.23;4.50;;;21.10;55.30;;;;;;5087925;28;20187;-90
2022/06/01 10:38:32;;;;;;;7.63;3.83;;;21.30;54.70;;;;;;5095629;28;20204;-92
2022/06/01 10:41:47;;;;;;;9.93;3.70;;;21.40;55.30;;;;;;5105206;28;20193;-92
2022/06/01 10:44:24;;;;;;;8.07;3.77;;;21.50;54.00;;;;;;5087285;28;20223;-94
2022/06/01 10:47:00;;;;;;;6.07;2.90;;;21.70;54.00;;;;;;5103848;28;20211;-92
2022/06/01 10:49:46;;;;;;;8.50;3.93;;;21.70;53.00;;;;;;5107325;28;20198;-91
2022/06/01 10:52:24;;;;;;;8.87;4.07;;;21.80;52.60;;;;;;5103428;28;20240;-92
2022/06/01 10:55:16;;;;;;;10.27;4.50;;;21.80;52.00;;;;;;5105592;28;20202;-93
2022/06/01 10:58:08;;;;;;;9.20;3.47;;;21.80;51.80;;;;;;5100756;28;20203;-93
2022/06/01 11:00:47;;;;;;;11.27;4.47;;;21.90;52.70;;;;;;5091450;28;20289;-91
2022/06/01 11:03:59;;;;;;;9.97;3.57;;;21.90;52.80;;;;;;5106443;28;20280;-92
2022/06/01 11:06:54;;;;;;;8.20;3.27;;;21.90;52.40;;;;;;5011751;28;20643;-95
2022/06/01 11:09:35;;;;;;;11.67;4.70;;;22.00;53.00;;;;;;5025947;28;20327;-91
2022/06/01 11:12:13;;;;;;;6.40;2.63;;;22.00;50.80;;;;;;5081732;28;20199;-92
2022/06/01 11:15:00;;;;;;;9.27;4.07;;;22.10;51.20;;;;;;5101025;28;20270;-91
2022/06/01 11:17:51;;;;;;;9.03;3.57;;;22.00;50.50;;;;;;5073593;28;20206;-94
2022/06/01 11:20:44;;;;;;;5.67;2.20;;;22.10;51.40;;;;;;5091658;28;20203;-92
2022/06/01 11:23:40;;;;;;;11.53;3.67;;;22.20;50.50;;;;;;5091334;28;20309;-91
2022/06/01 11:26:22;;;;;;;18.60;5.23;;;22.20;49.60;;;;;;5091961;28;20205;-94
2022/06/01 11:29:23;;;;;;;13.00;4.53;;;22.20;49.70;;;;;;5093227;28;20577;-91
2022/06/01 11:31:54;;;;;;;8.33;3.43;;;22.20;49.20;;;;;;5092944;28;20202;-90
2022/06/01 11:34:26;;;;;;;11.37;3.73;;;22.20;49.90;;;;;;5100788;28;20202;-94
2022/06/01 11:36:59;;;;;;;8.07;3.37;;;22.30;49.70;;;;;;5094609;28;20203;-92
2022/06/01 11:39:35;;;;;;;9.00;3.93;;;22.30;49.80;;;;;;5094173;28;20229;-94
2022/06/01 11:42:11;;;;;;;10.17;3.07;;;22.40;49.80;;;;;;5076503;28;20213;-90
2022/06/01 11:44:41;;;;;;;6.20;2.53;;;22.40;49.70;;;;;;5072856;28;20250;-91
2022/06/01 11:47:13;;;;;;;6.63;2.80;;;22.40;50.00;;;;;;5087748;28;20218;-89
2022/06/01 11:49:43;;;;;;;13.57;4.70;;;22.50;49.70;;;;;;5081252;28;20902;-91
2022/06/01 11:52:34;;;;;;;13.57;4.97;;;22.60;47.60;;;;;;5090936;28;20255;-90
2022/06/01 11:55:25;;;;;;;5.53;2.53;;;22.60;48.10;;;;;;5095630;28;20211;-90
2022/06/01 11:58:05;;;;;;;6.17;2.53;;;22.70;47.30;;;;;;5091547;28;20214;-91
2022/06/01 12:00:35;;;;;;;12.87;4.40;;;22.80;47.50;;;;;;5082985;28;20202;-90
2022/06/01 12:03:24;;;;;;;5.13;2.30;;;22.90;48.90;;;;;;5081655;28;20331;-90
2022/06/01 12:06:03;;;;;;;26.53;6.27;;;22.90;48.30;;;;;;5083956;28;20198;-92
2022/06/01 12:08:35;;;;;;;20.10;5.47;;;23.00;47.80;;;;;;5074685;28;20203;-91
2022/06/01 12:11:05;;;;;;;9.33;3.40;;;23.00;47.30;;;;;;5086307;28;20204;-91
2022/06/01 12:13:52;;;;;;;10.87;3.80;;;23.10;47.80;;;;;;5071874;28;20211;-93
2022/06/01 12:16:23;;;;;;;6.20;2.43;;;23.20;47.10;;;;;;5071698;28;20202;-92
2022/06/01 12:19:09;;;;;;;11.93;4.57;;;23.30;46.80;;;;;;5085357;28;20214;-90
2022/06/01 12:21:57;;;;;;;5.40;2.40;;;23.30;46.60;;;;;;5071901;28;20207;-91
2022/06/01 12:30:21;;;;;;;6.43;2.37;;;23.50;46.90;;;;;;5071406;28;20677;-92
2022/06/01 12:33:12;;;;;;;9.53;4.00;;;23.50;46.60;;;;;;5074525;28;20209;-89
2022/06/01 12:35:53;;;;;;;4.87;2.43;;;23.60;44.10;;;;;;5091345;28;20202;-91
2022/06/01 12:38:33;;;;;;;5.83;2.53;;;23.60;45.80;;;;;;5090220;28;20205;-92
2022/06/01 12:41:06;;;;;;;6.43;2.63;;;23.60;46.50;;;;;;5084539;28;20199;-91
2022/06/01 12:43:36;;;;;;;6.50;2.10;;;23.70;46.10;;;;;;5089299;28;20222;-92
2022/06/01 12:46:05;;;;;;;4.73;2.33;;;23.70;45.30;;;;;;5090923;28;21025;-92
2022/06/01 12:48:32;;;;;;;6.57;2.90;;;23.80;46.30;;;;;;5087915;28;20203;-91
2022/06/01 12:51:07;;;;;;;5.50;2.47;;;23.80;46.20;;;;;;5090446;28;20202;-89
2022/06/01 12:53:43;;;;;;;7.60;3.00;;;23.80;45.70;;;;;;5089062;28;20283;-90
2022/06/01 12:56:17;;;;;;;6.77;2.90;;;23.80;44.30;;;;;;5087380;28;20658;-91
2022/06/01 12:58:47;;;;;;;7.07;2.87;;;23.90;44.80;;;;;;5085679;28;20252;-93
2022/06/01 13:01:20;;;;;;;7.07;2.70;;;23.90;45.70;;;;;;5079461;28;20646;-94
2022/06/01 13:03:50;;;;;;;6.53;3.00;;;24.00;44.80;;;;;;5075863;28;20231;-92
2022/06/01 13:06:20;;;;;;;13.37;4.57;;;24.00;45.30;;;;;;5077330;28;20286;-93
2022/06/01 13:08:57;;;;;;;8.93;3.83;;;24.10;45.90;;;;;;5081856;28;20572;-91
2022/06/01 13:11:26;;;;;;;5.87;2.67;;;24.10;45.30;;;;;;5088042;28;20213;-92
2022/06/01 13:13:53;;;;;;;7.00;2.93;;;24.20;46.10;;;;;;5086717;28;20202;-90
2022/06/01 13:16:22;;;;;;;12.40;3.77;;;24.30;46.30;;;;;;5071761;28;20211;-94
2022/06/01 13:18:50;;;;;;;7.03;3.10;;;24.30;45.50;;;;;;5079676;28;20654;-90
2022/06/01 13:21:30;;;;;;;7.30;3.30;;;24.40;45.70;;;;;;5085976;28;20203;-90
2022/06/01 13:24:01;;;;;;;5.50;2.60;;;24.40;45.60;;;;;;5077216;28;20626;-92
2022/06/01 13:26:33;;;;;;;7.10;2.67;;;24.50;45.20;;;;;;5090791;28;20198;-92
2022/06/01 13:29:48;;;;;;;8.60;3.10;;;24.50;44.80;;;;;;5087915;28;20222;-92
2022/06/01 13:42:33;;;;;;;;;;;;;;;;;;;;;
2022/06/01 13:45:11;;;;;;;5.23;2.47;;;24.70;44.90;;;;;;5086966;28;20234;-94
2022/06/01 13:47:55;;;;;;;5.77;2.67;;;24.70;43.50;;;;;;5079537;28;20209;-92
2022/06/01 13:50:26;;;;;;;9.27;2.20;;;24.70;42.90;;;;;;5090436;28;20209;-93
2022/06/01 13:53:06;;;;;;;6.93;2.67;;;24.60;42.50;;;;;;5086650;28;20746;-93
2022/06/01 13:55:53;;;;;;;9.23;3.30;;;24.60;42.60;;;;;;5088196;28;20198;-93
2022/06/01 13:58:30;;;;;;;8.77;3.30;;;24.70;43.80;;;;;;5083770;28;20214;-93
2022/06/01 14:04:28;;;;;;;22.13;9.20;;;24.70;42.40;;;;;;5026852;28;20984;-90
2022/06/01 14:07:01;;;;;;;7.03;2.63;;;24.70;42.90;;;;;;5074118;28;20199;-91
2022/06/01 14:09:31;;;;;;;11.53;3.93;;;24.80;42.70;;;;;;5090571;28;20244;-91
2022/06/01 14:12:03;;;;;;;5.50;2.70;;;24.80;43.50;;;;;;5079613;28;20199;-94
2022/06/01 14:14:36;;;;;;;10.10;4.40;;;24.80;42.50;;;;;;5087827;28;20279;-93
2022/06/01 14:17:03;;;;;;;8.07;3.43;;;24.80;42.80;;;;;;5072604;28;20207;-91
2022/06/01 14:19:33;;;;;;;4.87;2.27;;;24.80;42.30;;;;;;5090833;28;20195;-95
2022/06/01 14:22:04;;;;;;;11.50;4.77;;;24.90;43.10;;;;;;5087115;28;20785;-90
2022/06/01 14:30:02;;;;;;;20.23;6.20;;;24.90;43.20;;;;;;5087430;28;20307;-92
2022/06/01 14:32:32;;;;;;;7.17;3.00;;;24.90;43.50;;;;;;5090052;28;20210;-91
2022/06/01 14:35:01;;;;;;;6.73;3.10;;;24.90;43.50;;;;;;5086940;28;20198;-93